Arbor Vitae, WI

10:15 AM CDT on July 20, 2017 (GMT -0500)
Lakeland-Lee Memorial

Weather History for KARV - October, 2011

Change the Weather History Date:

Monday, October 10, 2011

  Actual Average Record
Temperature  
Mean Temperature 62 °F -  
Max Temperature 79 °F 54 °F 81 °F (1955)
Min Temperature 48 °F 34 °F 10 °F (1964)
Degree Days  
Heating Degree Days 2    
Growing Degree Days 12 (Base 50)    
Moisture  
Dew Point 48 °F    
Average Humidity 64    
Maximum Humidity 92    
Minimum Humidity 36    
Precipitation  
Precipitation 0.00 in - - ()
Sea Level Pressure  
Sea Level Pressure 30.12 in    
Wind  
Wind Speed 4 mph (SSE)    
Max Wind Speed 16 mph    
Max Gust Speed 25 mph    
Visibility 10 miles    
Events      
Averages and records for this station are not official NWS values.
T = Trace of Precipitation, MM = Missing Value Source: NWS Daily Summary

Daily Weather History Graph

Daily Weather History Graph

Search for Another Location

Airport or City:

Trip Planner

Search our weather history database for the weather conditions in past years. The results will help you decide how hot, cold, wet, or windy it might be!

Date:

Astronomy

Oct. 10, 2011 Rise Set
Actual Time 7:08 AM CDT 6:22 PM CDT
Civil Twilight 6:38 AM CDT 6:52 PM CDT
Nautical Twilight 6:04 AM CDT 7:26 PM CDT
Astronomical Twilight 5:29 AM CDT 8:01 PM CDT
Moon 5:26 PM CDT (10/10) 5:48 AM CDT (10/10)
Length of Visible Light 12h 13m
Length of Day
11h 13m
Waxing Gibbous, 98% of the Moon is Illuminated
Oct 10
Waxing Gibbous
Oct 11
Full
Oct 19
Last Quarter
Oct 26
New
Nov 2
First Quarter

Hourly Weather History & Observations

Time (CDT) Temp. Dew Point Humidity Pressure Visibility Wind Dir Wind Speed Gust Speed Precip Events Conditions
12:15 AM 56.3 °F 48.6 °F 75% 30.25 in 10.0 mi Calm Calm - N/A   Clear
12:35 AM 54.5 °F 48.4 °F 80% 30.25 in 10.0 mi Calm Calm - N/A   Clear
12:55 AM 54.7 °F 47.8 °F 78% 30.24 in 10.0 mi Calm Calm - N/A   Clear
1:15 AM 54.5 °F 47.7 °F 78% 30.24 in 10.0 mi Calm Calm - N/A   Clear
1:35 AM 52.3 °F 47.1 °F 82% 30.24 in 10.0 mi Calm Calm - N/A   Clear
2:15 AM 51.8 °F 46.9 °F 83% 30.23 in 10.0 mi Calm Calm - N/A   Clear
2:35 AM 51.8 °F 47.3 °F 85% 30.23 in 10.0 mi ESE 3.5 mph - N/A   Clear
2:55 AM 53.1 °F 48.2 °F 84% 30.23 in 10.0 mi Calm Calm - N/A   Clear
3:35 AM 51.8 °F 47.5 °F 85% 30.22 in 10.0 mi Calm Calm - N/A   Clear
3:55 AM 51.8 °F 48.4 °F 88% 30.22 in 10.0 mi Calm Calm - N/A   Clear
4:15 AM 51.8 °F 48.6 °F 89% 30.22 in 10.0 mi Calm Calm - N/A   Clear
4:35 AM 51.8 °F 48.7 °F 89% 30.22 in 10.0 mi Calm Calm - N/A   Clear
4:55 AM 50.7 °F 47.8 °F 90% 30.22 in 10.0 mi Calm Calm - N/A   Clear
5:15 AM 51.3 °F 48.2 °F 89% 30.22 in 10.0 mi Calm Calm - N/A   Clear
5:35 AM 49.3 °F 46.4 °F 90% 30.22 in 10.0 mi ESE 3.5 mph - N/A   Clear
5:55 AM 49.1 °F 46.4 °F 90% 30.22 in 7.0 mi ESE 3.5 mph - N/A   Clear
6:15 AM 48.9 °F 46.8 °F 92% 30.22 in 10.0 mi ESE 3.5 mph - N/A   Clear
6:35 AM 49.8 °F 47.3 °F 91% 30.22 in 10.0 mi ESE 4.6 mph - N/A   Clear
6:55 AM 51.8 °F 49.3 °F 91% 30.22 in 10.0 mi ESE 4.6 mph - N/A   Clear
7:15 AM 51.3 °F 48.7 °F 91% 30.22 in 7.0 mi ESE 4.6 mph - N/A   Clear
7:35 AM 51.3 °F 48.9 °F 92% 30.22 in 7.0 mi ESE 4.6 mph - N/A   Clear
8:15 AM 51.8 °F 49.3 °F 91% 30.21 in 7.0 mi ESE 3.5 mph - N/A   Clear
8:35 AM 54.1 °F 50.7 °F 88% 30.20 in 10.0 mi ESE 4.6 mph - N/A   Clear
8:55 AM 56.8 °F 51.4 °F 82% 30.20 in 10.0 mi ESE 4.6 mph - N/A   Clear
9:15 AM 58.5 °F 50.9 °F 76% 30.20 in 10.0 mi SE 3.5 mph - N/A   Clear
9:35 AM 61.5 °F 51.1 °F 69% 30.19 in 10.0 mi SSE 6.9 mph - N/A   Clear
10:35 AM 66.0 °F 51.3 °F 59% 30.17 in 10.0 mi SE 6.9 mph - N/A   Clear
10:55 AM 67.8 °F 51.8 °F 56% 30.17 in 10.0 mi SSE 10.4 mph - N/A   Clear
11:35 AM 72.0 °F 52.7 °F 51% 30.15 in 10.0 mi SE 9.2 mph - N/A   Clear
11:55 AM 72.1 °F 51.3 °F 48% 30.15 in 10.0 mi SSE 5.8 mph - N/A   Clear
12:15 PM 74.3 °F 50.5 °F 43% 30.13 in 10.0 mi South 16.1 mph 19.6 mph N/A   Clear
12:35 PM 76.1 °F 49.5 °F 39% 30.13 in 10.0 mi SSE 13.8 mph 18.4 mph N/A   Clear
1:15 PM 77.0 °F 47.8 °F 36% 30.10 in 10.0 mi South 15.0 mph 25.3 mph N/A   Clear
1:35 PM 77.0 °F 48.6 °F 37% 30.10 in 10.0 mi South 15.0 mph 23.0 mph N/A   Clear
1:55 PM 76.6 °F 48.7 °F 37% 30.09 in 10.0 mi South 12.7 mph - N/A   Scattered Clouds
2:15 PM 76.8 °F 48.2 °F 36% 30.08 in 10.0 mi South 13.8 mph 21.9 mph N/A   Scattered Clouds
2:35 PM 75.6 °F 46.9 °F 36% 30.06 in 10.0 mi South 11.5 mph - N/A   Clear
3:15 PM 76.5 °F 47.3 °F 36% 30.05 in 10.0 mi South 12.7 mph - N/A   Clear
3:55 PM 76.5 °F 47.8 °F 36% 30.04 in 10.0 mi South 16.1 mph 21.9 mph N/A   Clear
4:15 PM 75.6 °F 46.8 °F 36% 30.04 in 10.0 mi South 8.1 mph 18.4 mph N/A   Clear
4:35 PM 73.6 °F 46.0 °F 37% 30.03 in 10.0 mi SSE 11.5 mph 16.1 mph N/A   Clear
4:55 PM 74.1 °F 46.0 °F 37% 30.02 in 10.0 mi South 12.7 mph - N/A   Clear
5:15 PM 72.1 °F 45.7 °F 39% 30.02 in 10.0 mi SSW 10.4 mph - N/A   Clear
5:35 PM 72.0 °F 47.3 °F 41% 30.02 in 10.0 mi SSW 9.2 mph - N/A   Clear
5:55 PM 70.2 °F 48.0 °F 45% 30.02 in 10.0 mi South 6.9 mph - N/A   Clear
6:15 PM 67.6 °F 46.8 °F 47% 30.01 in 10.0 mi South 4.6 mph - N/A   Clear
6:35 PM 68.0 °F 46.9 °F 47% 30.01 in 10.0 mi SSE 4.6 mph - N/A   Clear
7:15 PM 67.1 °F 47.3 °F 49% 30.01 in 10.0 mi SSE 4.6 mph - N/A   Clear
7:35 PM 65.8 °F 47.3 °F 51% 30.00 in 10.0 mi ESE 6.9 mph - N/A   Clear
7:55 PM 64.4 °F 47.7 °F 55% 30.00 in 10.0 mi SE 5.8 mph - N/A   Clear
8:15 PM 64.4 °F 48.0 °F 55% 30.00 in 10.0 mi SE 5.8 mph - N/A   Clear
8:35 PM 64.4 °F 47.7 °F 55% 30.00 in 10.0 mi SE 6.9 mph - N/A   Clear
8:55 PM 64.4 °F 47.5 °F 54% 30.00 in 10.0 mi SSE 8.1 mph - N/A   Clear
9:15 PM 64.6 °F 47.5 °F 54% 30.00 in 10.0 mi SSE 10.4 mph - N/A   Clear
9:35 PM 64.0 °F 47.8 °F 56% 30.00 in 10.0 mi SSE 6.9 mph - N/A   Clear
9:55 PM 63.3 °F 48.2 °F 58% 30.00 in 10.0 mi SSE 8.1 mph - N/A   Clear
10:35 PM 62.8 °F 48.7 °F 60% 30.00 in 10.0 mi SSE 8.1 mph - N/A   Clear
10:55 PM 62.6 °F 48.9 °F 61% 30.00 in 10.0 mi SSE 6.9 mph - N/A   Clear
11:15 PM 62.1 °F 48.7 °F 62% 30.00 in 10.0 mi SSE 4.6 mph - N/A   Clear
11:35 PM 61.9 °F 48.4 °F 61% 30.00 in 10.0 mi South 9.2 mph - N/A   Clear